Time;durP1;ratioP1;P1;durP2;ratioP2;P2;SDS_P1;SDS_P2;PMS_P1;PMS_P2;Temp;Humidity;BMP_temperature;BMP_pressure;BME280_temperature;BME280_humidity;BME280_pressure;Samples;Min_cycle;Max_cycle;Signal;HPM_P1;HPM_P2
2022/01/05 04:03:06;;;;;;;5.80;3.03;;;2.60;87.50;;;;;;5010280;28;20169;-49
2022/01/05 04:05:31;;;;;;;17.25;6.50;;;2.60;87.60;;;;;;5008240;28;20030;-50
2022/01/05 04:07:57;;;;;;;12.35;2.50;;;2.60;87.10;;;;;;5007496;28;20354;-49
2022/01/05 04:10:24;;;;;;;21.48;3.40;;;2.60;86.90;;;;;;5008360;28;20030;-50
2022/01/05 04:12:49;;;;;;;14.10;3.50;;;2.60;86.50;;;;;;5008984;28;20030;-48
2022/01/05 04:15:19;;;;;;;10.45;2.33;;;2.70;86.10;;;;;;5007803;28;20385;-47
2022/01/05 04:17:45;;;;;;;19.30;3.33;;;2.60;86.20;;;;;;5008478;28;20026;-50
2022/01/05 04:20:13;;;;;;;19.13;3.65;;;2.60;86.30;;;;;;5008131;28;20027;-49
2022/01/05 04:22:39;;;;;;;17.08;2.50;;;2.60;86.40;;;;;;5008362;28;20033;-51
2022/01/05 04:25:05;;;;;;;8.98;2.85;;;2.60;86.00;;;;;;5006785;28;20076;-48
2022/01/05 04:27:31;;;;;;;11.80;3.75;;;2.60;86.00;;;;;;5007637;28;20033;-49
2022/01/05 04:29:57;;;;;;;13.57;3.05;;;2.50;85.90;;;;;;5007610;28;20381;-48
2022/01/05 04:32:22;;;;;;;13.05;3.05;;;2.60;85.30;;;;;;5007441;28;20411;-48
2022/01/05 04:34:48;;;;;;;7.32;2.30;;;2.50;85.70;;;;;;5007538;28;20110;-47
2022/01/05 04:37:14;;;;;;;21.60;4.65;;;2.40;85.70;;;;;;5007359;28;20462;-51
2022/01/05 04:39:39;;;;;;;7.93;2.58;;;2.50;85.80;;;;;;5008350;28;20422;-49
2022/01/05 04:42:05;;;;;;;11.35;2.88;;;2.40;85.80;;;;;;5007825;28;20415;-49
2022/01/05 04:44:31;;;;;;;8.07;1.50;;;2.40;85.50;;;;;;5009318;28;20061;-48
2022/01/05 04:46:57;;;;;;;9.05;2.33;;;2.40;85.80;;;;;;5008957;28;20038;-51
2022/01/05 04:49:23;;;;;;;9.98;2.08;;;2.30;85.60;;;;;;5008320;28;20027;-50
2022/01/05 04:51:48;;;;;;;4.05;1.58;;;2.40;85.70;;;;;;5007746;28;20300;-49
2022/01/05 04:54:15;;;;;;;8.75;2.10;;;2.30;85.70;;;;;;5008184;28;20032;-49
2022/01/05 04:56:41;;;;;;;12.25;2.15;;;2.30;85.70;;;;;;5007944;28;20034;-48
2022/01/05 04:59:06;;;;;;;17.67;2.97;;;2.30;85.50;;;;;;5008496;28;20416;-52
2022/01/05 05:01:32;;;;;;;16.02;4.00;;;2.30;85.40;;;;;;5008032;28;20046;-50
2022/01/05 05:03:57;;;;;;;10.23;2.90;;;2.30;85.30;;;;;;5008417;28;20022;-51
2022/01/05 05:06:23;;;;;;;24.10;3.08;;;2.30;85.20;;;;;;5008328;28;20022;-48
2022/01/05 05:08:49;;;;;;;11.32;2.90;;;2.30;85.10;;;;;;5008325;28;20439;-50
2022/01/05 05:11:15;;;;;;;8.77;2.47;;;2.40;85.20;;;;;;5005791;28;20324;-49
2022/01/05 05:13:41;;;;;;;15.98;3.05;;;2.30;85.30;;;;;;4997711;28;20061;-48
2022/01/05 05:16:07;;;;;;;16.73;2.88;;;2.20;85.60;;;;;;4995098;28;20121;-49
2022/01/05 05:18:33;;;;;;;21.05;5.13;;;2.20;86.00;;;;;;4994706;28;20477;-49
2022/01/05 05:20:59;;;;;;;20.58;3.35;;;2.20;85.80;;;;;;4994545;28;20018;-48
2022/01/05 05:23:25;;;;;;;11.43;3.53;;;2.20;85.60;;;;;;4994646;28;20079;-48
2022/01/05 05:25:50;;;;;;;15.88;2.13;;;2.20;85.80;;;;;;4994448;28;20038;-47
2022/01/05 05:28:16;;;;;;;7.40;2.30;;;2.10;85.60;;;;;;4994603;28;20034;-48
2022/01/05 05:30:43;;;;;;;7.22;2.35;;;2.20;85.60;;;;;;4993524;28;20027;-51
2022/01/05 05:33:08;;;;;;;10.50;2.83;;;2.20;85.40;;;;;;4994532;28;20026;-48
2022/01/05 05:35:34;;;;;;;7.45;2.60;;;2.10;85.80;;;;;;4994815;28;20072;-49
2022/01/05 05:38:00;;;;;;;9.68;3.63;;;2.20;85.30;;;;;;4993805;28;20056;-51
2022/01/05 05:40:26;;;;;;;12.07;2.95;;;2.20;85.70;;;;;;4994091;28;20030;-48
2022/01/05 05:42:52;;;;;;;14.95;3.30;;;2.20;85.40;;;;;;4995177;28;20028;-49
2022/01/05 05:45:18;;;;;;;10.82;2.50;;;2.10;85.60;;;;;;4994019;28;20072;-49
2022/01/05 05:47:44;;;;;;;23.77;3.35;;;2.10;85.80;;;;;;4994648;28;20028;-47
2022/01/05 05:50:11;;;;;;;15.25;3.45;;;2.10;85.60;;;;;;4991329;28;20489;-49
2022/01/05 05:52:37;;;;;;;16.10;3.40;;;2.10;85.40;;;;;;4992776;28;20022;-47
2022/01/05 05:55:03;;;;;;;19.17;3.03;;;2.10;85.50;;;;;;4993644;28;20466;-49
2022/01/05 05:57:28;;;;;;;9.18;2.90;;;2.20;85.50;;;;;;4993175;28;20030;-50
2022/01/05 05:59:54;;;;;;;7.38;3.20;;;2.10;85.60;;;;;;4994037;28;20026;-47
2022/01/05 06:02:20;;;;;;;9.77;2.38;;;2.10;85.80;;;;;;4993485;28;20061;-49
2022/01/05 06:04:45;;;;;;;9.63;2.65;;;2.10;85.80;;;;;;4993091;28;20058;-49
2022/01/05 06:07:11;;;;;;;9.40;3.75;;;2.10;85.90;;;;;;4993403;28;20109;-48
2022/01/05 06:09:36;;;;;;;21.00;1.98;;;2.10;86.00;;;;;;4992915;28;20350;-53
2022/01/05 06:12:02;;;;;;;8.98;2.70;;;2.10;86.30;;;;;;4994005;28;20171;-48
2022/01/05 06:14:28;;;;;;;14.18;4.75;;;2.10;86.20;;;;;;4994013;28;20022;-48
2022/01/05 06:16:54;;;;;;;12.57;3.10;;;2.10;86.20;;;;;;4994154;28;20038;-47
2022/01/05 06:19:19;;;;;;;14.80;2.92;;;2.10;86.20;;;;;;4993460;28;20030;-49
2022/01/05 06:21:45;;;;;;;4.55;2.90;;;2.10;86.60;;;;;;4993513;28;20053;-49
2022/01/05 06:24:11;;;;;;;10.38;2.72;;;2.10;86.50;;;;;;4992763;28;20054;-48
2022/01/05 06:26:37;;;;;;;9.98;2.50;;;2.10;86.60;;;;;;4992906;28;20021;-49
2022/01/05 06:29:03;;;;;;;8.82;3.03;;;2.10;86.70;;;;;;4993712;28;20022;-50
2022/01/05 06:31:29;;;;;;;14.23;3.53;;;2.20;86.50;;;;;;4993423;28;20034;-50
2022/01/05 06:33:55;;;;;;;12.68;3.20;;;2.20;86.50;;;;;;4994063;28;20041;-50
2022/01/05 06:36:20;;;;;;;13.38;3.38;;;2.30;86.30;;;;;;4993599;28;20026;-52
2022/01/05 06:38:46;;;;;;;13.75;3.42;;;2.30;86.10;;;;;;4993848;28;20080;-50
2022/01/05 06:41:12;;;;;;;12.40;2.80;;;2.30;86.10;;;;;;4994350;28;20362;-51
2022/01/05 06:43:37;;;;;;;14.18;3.03;;;2.30;85.70;;;;;;4993550;28;20401;-48
2022/01/05 06:46:03;;;;;;;15.18;4.53;;;2.40;85.70;;;;;;4992457;28;20065;-51
2022/01/05 06:48:29;;;;;;;12.00;3.15;;;2.40;85.70;;;;;;4992582;28;20087;-50
2022/01/05 06:50:54;;;;;;;36.78;5.97;;;2.40;85.70;;;;;;4992590;28;20379;-48
2022/01/05 06:53:20;;;;;;;15.60;3.15;;;2.40;85.70;;;;;;4992947;28;20105;-50
2022/01/05 06:55:46;;;;;;;21.33;4.70;;;2.40;85.50;;;;;;4993008;28;20038;-49
2022/01/05 06:58:11;;;;;;;13.57;3.70;;;2.50;85.30;;;;;;4992918;28;20022;-51
2022/01/05 07:00:37;;;;;;;7.45;2.63;;;2.60;85.60;;;;;;4993557;28;20023;-52
2022/01/05 07:03:04;;;;;;;8.63;3.40;;;2.60;85.30;;;;;;4992607;28;20547;-52
2022/01/05 07:05:30;;;;;;;13.63;3.80;;;2.60;85.20;;;;;;4992647;28;20023;-53
2022/01/05 07:07:56;;;;;;;14.32;3.30;;;2.70;84.70;;;;;;4992166;28;20022;-49
2022/01/05 07:10:22;;;;;;;9.27;2.55;;;2.70;85.10;;;;;;4992575;28;20506;-50
2022/01/05 07:12:48;;;;;;;7.75;3.08;;;2.70;84.80;;;;;;4992633;28;20532;-53
2022/01/05 07:15:14;;;;;;;9.40;3.17;;;2.60;84.90;;;;;;4992743;28;20074;-48
2022/01/05 07:17:40;;;;;;;11.20;4.68;;;2.50;85.30;;;;;;4992568;28;20026;-49
2022/01/05 07:20:07;;;;;;;18.40;4.07;;;2.50;85.60;;;;;;4991917;28;20109;-48
2022/01/05 07:22:33;;;;;;;16.30;4.57;;;2.40;85.60;;;;;;4991949;28;20084;-48
2022/01/05 07:24:59;;;;;;;12.60;3.83;;;2.50;85.70;;;;;;4992496;28;20018;-49
2022/01/05 07:27:25;;;;;;;15.77;4.07;;;2.50;85.70;;;;;;4991107;28;20022;-48
2022/01/05 07:29:50;;;;;;;15.93;4.13;;;2.50;85.60;;;;;;4992166;28;20085;-51
2022/01/05 07:32:16;;;;;;;14.63;4.30;;;2.50;85.40;;;;;;4993130;28;20026;-51
2022/01/05 07:34:42;;;;;;;18.88;3.55;;;2.60;85.20;;;;;;4991422;28;20037;-49
2022/01/05 07:37:09;;;;;;;15.38;5.30;;;2.60;85.30;;;;;;4990948;28;20456;-49
2022/01/05 07:39:35;;;;;;;15.52;4.13;;;2.70;85.60;;;;;;4991870;28;20022;-50
2022/01/05 07:42:01;;;;;;;21.30;3.70;;;2.70;85.30;;;;;;4989433;28;20030;-49
2022/01/05 07:44:29;;;;;;;14.93;4.38;;;2.70;85.20;;;;;;4991053;28;20088;-50
2022/01/05 07:46:55;;;;;;;12.20;3.28;;;2.70;85.40;;;;;;4990866;28;20029;-49
2022/01/05 07:49:21;;;;;;;19.23;4.22;;;2.70;85.50;;;;;;4991155;28;20101;-49
2022/01/05 07:51:47;;;;;;;15.48;4.22;;;2.70;85.30;;;;;;4991416;28;20518;-49
2022/01/05 07:54:12;;;;;;;15.52;5.40;;;2.70;85.60;;;;;;4990808;28;20054;-53
2022/01/05 07:56:38;;;;;;;10.68;3.60;;;2.70;85.60;;;;;;4991184;28;20029;-49
2022/01/05 07:59:04;;;;;;;13.02;3.65;;;2.70;85.40;;;;;;4991788;28;20022;-51
2022/01/05 14:03:06;;;;;;;14.60;5.18;;;4.90;92.90;;;;;;5092607;27;20160;-48
2022/01/05 14:05:33;;;;;;;15.75;4.57;;;5.00;92.60;;;;;;5091305;28;20024;-48
2022/01/05 14:08:07;;;;;;;17.17;5.43;;;5.00;92.60;;;;;;5091697;28;20051;-52
2022/01/05 14:10:35;;;;;;;17.65;5.05;;;5.10;92.80;;;;;;5091413;28;20016;-48
2022/01/05 14:13:05;;;;;;;10.90;4.93;;;5.10;92.40;;;;;;5090834;28;20047;-51
2022/01/05 14:15:31;;;;;;;20.80;4.85;;;5.10;92.50;;;;;;5073940;28;20090;-48
2022/01/05 14:17:58;;;;;;;16.15;4.53;;;5.10;92.70;;;;;;5105904;28;20472;-51
2022/01/05 14:20:24;;;;;;;11.30;4.85;;;5.10;92.80;;;;;;5111969;28;20055;-49
2022/01/05 14:23:01;;;;;;;11.95;5.05;;;5.10;92.70;;;;;;5112224;28;20028;-51
2022/01/05 14:25:32;;;;;;;18.73;6.47;;;5.10;92.80;;;;;;5110798;28;20393;-48
2022/01/05 14:27:58;;;;;;;11.65;4.85;;;5.10;92.80;;;;;;5093172;28;20020;-51
2022/01/05 14:30:31;;;;;;;14.75;4.07;;;5.10;92.80;;;;;;5110465;28;20028;-52
2022/01/05 14:32:57;;;;;;;21.38;4.53;;;5.10;92.50;;;;;;5111763;28;20058;-51
2022/01/05 14:35:22;;;;;;;19.50;4.75;;;5.20;92.50;;;;;;5111185;28;20028;-49
2022/01/05 14:37:55;;;;;;;8.00;3.22;;;5.20;92.40;;;;;;5110779;28;20476;-50
2022/01/05 14:40:28;;;;;;;9.70;4.20;;;5.30;92.40;;;;;;5111966;28;20030;-49
2022/01/05 14:42:59;;;;;;;20.70;5.75;;;5.30;92.60;;;;;;5111486;28;20028;-48
2022/01/05 14:45:26;;;;;;;21.52;5.32;;;5.20;92.90;;;;;;5110322;28;20098;-50
2022/01/05 14:47:53;;;;;;;17.02;4.55;;;5.30;92.90;;;;;;5093040;28;20043;-49
2022/01/05 14:50:19;;;;;;;21.27;4.95;;;5.30;92.90;;;;;;5110277;28;20027;-52
2022/01/05 14:52:46;;;;;;;15.65;6.53;;;5.30;92.60;;;;;;5110592;28;20081;-52
2022/01/05 14:55:13;;;;;;;16.75;4.60;;;5.30;92.50;;;;;;5110365;28;20511;-48
2022/01/05 14:57:38;;;;;;;25.88;6.15;;;5.30;92.40;;;;;;5110663;28;20547;-50
2022/01/05 15:00:06;;;;;;;8.00;3.15;;;5.30;92.30;;;;;;5110815;28;20055;-51
2022/01/05 15:02:31;;;;;;;12.38;4.32;;;5.20;92.30;;;;;;5110312;28;20078;-52
2022/01/05 15:04:58;;;;;;;14.98;3.97;;;5.20;92.30;;;;;;5110877;28;20388;-52
2022/01/05 15:07:24;;;;;;;6.93;3.03;;;5.20;92.00;;;;;;5093060;28;20487;-50
2022/01/05 15:09:50;;;;;;;5.57;2.90;;;5.20;92.10;;;;;;5093268;28;20016;-49
2022/01/05 15:12:17;;;;;;;18.08;3.97;;;5.20;92.30;;;;;;5109591;28;20123;-50
2022/01/05 15:14:43;;;;;;;8.80;3.75;;;5.20;92.50;;;;;;5096516;28;20024;-38
2022/01/05 15:17:12;;;;;;;10.60;4.50;;;5.20;92.60;;;;;;5097463;28;20031;-39
2022/01/05 15:19:38;;;;;;;14.32;3.92;;;5.20;92.70;;;;;;5096640;28;20055;-39
2022/01/05 15:22:05;;;;;;;12.60;3.67;;;5.30;92.20;;;;;;5096091;28;20028;-40
2022/01/05 15:24:30;;;;;;;16.23;4.75;;;5.30;92.40;;;;;;5096116;28;20024;-39
2022/01/05 15:26:56;;;;;;;14.10;4.28;;;5.30;92.50;;;;;;5096621;28;20373;-37
2022/01/05 15:29:22;;;;;;;16.73;4.78;;;5.30;92.70;;;;;;5079234;28;20024;-37
2022/01/05 15:31:48;;;;;;;14.65;4.60;;;5.30;92.90;;;;;;5078396;28;20111;-39
2022/01/05 15:34:15;;;;;;;27.17;5.68;;;5.30;92.50;;;;;;5078036;28;20027;-38
2022/01/05 15:36:41;;;;;;;20.92;6.57;;;5.40;92.40;;;;;;5096634;28;20031;-38
2022/01/05 15:39:08;;;;;;;13.93;4.47;;;5.30;92.40;;;;;;5097333;28;20124;-38
2022/01/05 15:41:34;;;;;;;17.63;5.10;;;5.30;92.70;;;;;;5077956;28;20455;-38
2022/01/05 15:44:00;;;;;;;12.18;4.38;;;5.30;93.00;;;;;;5077998;28;20106;-38
2022/01/05 15:46:25;;;;;;;13.23;4.03;;;5.30;93.00;;;;;;5097613;28;20020;-38
2022/01/05 15:48:51;;;;;;;15.10;3.70;;;5.30;93.30;;;;;;5078651;28;20452;-38
2022/01/05 15:51:18;;;;;;;12.98;4.05;;;5.30;93.40;;;;;;5095553;28;20118;-38
2022/01/05 15:53:44;;;;;;;12.77;4.68;;;5.30;93.50;;;;;;5096684;28;20028;-38
2022/01/05 15:56:16;;;;;;;18.38;4.50;;;5.30;93.30;;;;;;5096613;28;20024;-38
2022/01/05 16:01:30;;;;;;;15.85;4.13;;;5.30;92.80;;;;;;5096887;28;20106;-38
2022/01/05 16:04:04;;;;;;;16.52;5.03;;;5.30;92.50;;;;;;5079055;28;20012;-38
2022/01/05 16:06:31;;;;;;;9.38;4.32;;;5.30;92.20;;;;;;5095680;28;20464;-37
2022/01/05 16:08:57;;;;;;;9.55;4.43;;;5.30;92.10;;;;;;5077622;28;20020;-38
2022/01/05 16:11:23;;;;;;;10.05;5.78;;;5.30;91.80;;;;;;5095705;28;20032;-37
2022/01/05 16:13:50;;;;;;;11.68;3.00;;;5.20;92.00;;;;;;5076531;28;20032;-37
2022/01/05 16:16:16;;;;;;;7.05;4.55;;;5.10;92.00;;;;;;5095887;28;20031;-38
2022/01/05 16:18:43;;;;;;;6.65;4.00;;;5.00;92.40;;;;;;5095880;28;20063;-37
2022/01/05 16:21:13;;;;;;;8.65;4.15;;;5.00;92.60;;;;;;5095535;28;20024;-38
2022/01/05 16:23:39;;;;;;;8.88;4.30;;;5.10;92.50;;;;;;5095924;28;20058;-37
2022/01/05 16:26:05;;;;;;;7.95;4.30;;;5.10;92.50;;;;;;5093850;28;20026;-38
2022/01/05 16:28:30;;;;;;;11.25;4.88;;;5.10;92.80;;;;;;5096287;28;20072;-38
2022/01/05 16:30:56;;;;;;;9.98;5.47;;;5.20;93.10;;;;;;5095134;28;20028;-37
2022/01/05 16:33:22;;;;;;;11.00;4.47;;;5.20;93.10;;;;;;5095452;28;20035;-37
2022/01/05 16:35:48;;;;;;;11.90;5.38;;;5.20;93.20;;;;;;5095380;28;20028;-37
2022/01/05 16:38:14;;;;;;;20.30;6.53;;;5.30;93.30;;;;;;5095736;28;20024;-37
2022/01/05 16:40:40;;;;;;;20.30;7.22;;;5.40;93.20;;;;;;5094768;28;20027;-38
2022/01/05 16:43:07;;;;;;;16.25;6.57;;;5.50;93.10;;;;;;5076253;28;20039;-37
2022/01/05 16:45:33;;;;;;;21.95;5.70;;;5.40;93.10;;;;;;5094642;28;20337;-37
2022/01/05 16:48:03;;;;;;;15.02;6.78;;;5.40;93.30;;;;;;5076389;28;20034;-38
2022/01/05 16:50:30;;;;;;;18.55;6.13;;;5.40;93.50;;;;;;5095054;28;20498;-38
2022/01/05 16:52:56;;;;;;;9.05;5.60;;;5.30;93.70;;;;;;5094295;28;20028;-37
2022/01/05 16:55:23;;;;;;;18.98;5.22;;;5.30;93.80;;;;;;5095222;28;20046;-37
2022/01/05 17:00:38;;;;;;;19.55;6.70;;;5.20;93.90;;;;;;5094729;28;20438;-42
2022/01/05 17:03:06;;;;;;;19.30;7.30;;;5.30;93.90;;;;;;5095216;28;20032;-37
2022/01/05 17:05:38;;;;;;;13.13;6.05;;;5.30;93.70;;;;;;5077807;28;20029;-38
2022/01/05 17:08:04;;;;;;;13.35;5.03;;;5.30;93.60;;;;;;5077348;28;20020;-38
2022/01/05 17:10:31;;;;;;;25.23;8.27;;;5.30;93.50;;;;;;5075789;28;20074;-37
2022/01/05 17:12:57;;;;;;;15.93;7.20;;;5.40;93.30;;;;;;5095577;28;20028;-37
2022/01/05 17:15:23;;;;;;;16.63;6.63;;;5.40;93.30;;;;;;5077438;28;20515;-38
2022/01/05 17:17:49;;;;;;;25.90;7.97;;;5.40;93.40;;;;;;5094937;28;20468;-38
2022/01/05 17:20:15;;;;;;;17.05;6.13;;;5.30;93.50;;;;;;5094911;28;20076;-37
2022/01/05 17:22:48;;;;;;;21.13;6.07;;;5.40;93.20;;;;;;5096769;28;20506;-43
2022/01/05 17:25:16;;;;;;;26.35;6.03;;;5.50;93.10;;;;;;5077778;28;20028;-40
2022/01/05 17:27:44;;;;;;;30.38;8.20;;;5.70;92.30;;;;;;5096407;28;20103;-37
2022/01/05 17:30:11;;;;;;;37.22;7.68;;;5.80;92.10;;;;;;5095096;28;20084;-37
2022/01/05 17:32:37;;;;;;;24.85;6.90;;;5.80;91.90;;;;;;5077389;28;20078;-39
2022/01/05 17:35:04;;;;;;;16.00;5.05;;;5.70;91.50;;;;;;5094355;28;20026;-37
2022/01/05 17:37:31;;;;;;;7.97;3.50;;;5.80;90.30;;;;;;5058400;28;20077;-38
2022/01/05 17:39:58;;;;;;;23.10;4.68;;;5.80;89.60;;;;;;5076021;28;20123;-38
2022/01/05 17:42:29;;;;;;;18.00;5.35;;;5.80;90.00;;;;;;5094700;28;20084;-37
2022/01/05 17:44:55;;;;;;;18.02;4.07;;;5.80;89.80;;;;;;5094263;28;20107;-37
2022/01/05 17:47:22;;;;;;;32.08;6.97;;;5.90;89.00;;;;;;5094677;28;20059;-38
2022/01/05 17:49:51;;;;;;;19.50;10.10;;;6.00;89.20;;;;;;5094298;28;20024;-45
2022/01/05 17:52:18;;;;;;;36.22;13.63;;;6.00;89.70;;;;;;5093577;28;20034;-38
2022/01/05 17:54:46;;;;;;;35.53;14.35;;;5.90;90.20;;;;;;5076718;28;20024;-38
2022/01/05 17:57:12;;;;;;;28.48;11.65;;;5.80;90.90;;;;;;5094886;28;20027;-37
2022/01/05 17:59:40;;;;;;;25.50;10.02;;;5.80;91.70;;;;;;5059342;28;20039;-37
2022/01/05 18:02:06;;;;;;;17.60;8.63;;;5.70;92.30;;;;;;5075297;28;20051;-37
2022/01/05 18:04:32;;;;;;;19.88;7.38;;;5.70;92.40;;;;;;5094181;28;20020;-38
2022/01/05 18:06:58;;;;;;;22.23;5.97;;;5.60;92.40;;;;;;5094622;28;20085;-38
2022/01/05 18:09:25;;;;;;;24.95;7.10;;;5.60;92.90;;;;;;5094228;28;20020;-37
2022/01/05 18:11:51;;;;;;;24.08;6.10;;;5.60;92.70;;;;;;5094469;28;20020;-38
2022/01/05 18:14:17;;;;;;;21.00;8.32;;;5.70;92.70;;;;;;5094821;28;20451;-37
2022/01/05 18:16:52;;;;;;;33.75;8.02;;;5.70;92.60;;;;;;5074602;28;20060;-37
2022/01/05 18:19:18;;;;;;;28.83;5.80;;;5.70;92.60;;;;;;5093477;28;20028;-37
2022/01/05 18:21:45;;;;;;;18.27;5.50;;;5.70;92.50;;;;;;5093900;28;20103;-38
2022/01/05 18:24:12;;;;;;;34.53;8.60;;;5.80;92.30;;;;;;5093726;28;20409;-38
2022/01/05 18:26:39;;;;;;;24.08;7.47;;;5.80;92.30;;;;;;5076380;28;20107;-38
2022/01/05 18:29:06;;;;;;;16.63;5.18;;;5.80;92.00;;;;;;5076228;28;20429;-37
2022/01/05 18:31:33;;;;;;;32.65;7.65;;;5.80;92.10;;;;;;5075811;28;20498;-39
2022/01/05 18:34:02;;;;;;;28.83;6.00;;;5.80;92.10;;;;;;5074864;28;20502;-38
2022/01/05 18:36:29;;;;;;;26.42;7.43;;;5.70;92.30;;;;;;5075518;28;20430;-39
2022/01/05 18:38:58;;;;;;;19.30;7.03;;;5.80;92.40;;;;;;5076070;28;20024;-38
2022/01/05 18:41:25;;;;;;;18.40;6.38;;;5.60;92.60;;;;;;5075790;28;20065;-38
2022/01/05 18:43:53;;;;;;;19.23;7.15;;;5.60;92.80;;;;;;5075964;28;20024;-38
2022/01/05 18:46:20;;;;;;;20.00;6.53;;;5.50;93.00;;;;;;5093790;28;20062;-38
2022/01/05 18:48:52;;;;;;;45.20;11.00;;;5.50;93.10;;;;;;5060654;28;20360;-38
2022/01/05 18:51:18;;;;;;;21.60;6.82;;;5.50;93.10;;;;;;5079886;28;20024;-39
2022/01/05 18:53:47;;;;;;;25.23;7.22;;;5.70;92.90;;;;;;5080208;28;20328;-38
2022/01/05 18:56:13;;;;;;;19.88;6.68;;;5.60;92.80;;;;;;5079843;28;20035;-38
2022/01/05 18:58:39;;;;;;;19.00;6.20;;;5.60;92.70;;;;;;5098226;28;20032;-38
2022/01/05 19:01:05;;;;;;;17.45;5.38;;;5.60;92.40;;;;;;5061049;28;20038;-38
2022/01/05 19:03:31;;;;;;;26.83;8.73;;;5.60;92.20;;;;;;4994951;28;20030;-38
2022/01/05 19:05:57;;;;;;;25.05;7.18;;;5.50;92.40;;;;;;4993672;28;20092;-38
2022/01/05 19:08:23;;;;;;;20.55;5.70;;;5.60;92.40;;;;;;4993974;28;20030;-37
2022/01/05 19:10:49;;;;;;;18.52;5.72;;;5.60;92.30;;;;;;5062345;28;20026;-44
2022/01/05 19:13:15;;;;;;;24.60;7.13;;;5.60;92.30;;;;;;4994538;28;20026;-38
2022/01/05 19:15:40;;;;;;;24.15;6.65;;;5.60;92.40;;;;;;4993524;28;20023;-38
2022/01/05 19:18:06;;;;;;;18.23;5.38;;;5.60;92.10;;;;;;4994018;28;20106;-38
2022/01/05 19:20:32;;;;;;;18.52;5.13;;;5.70;91.80;;;;;;4993574;28;20022;-38
2022/01/05 19:22:57;;;;;;;15.13;5.03;;;5.60;92.00;;;;;;4993896;28;20109;-38
2022/01/05 19:25:23;;;;;;;17.33;5.50;;;5.60;92.00;;;;;;4993430;28;20018;-38
2022/01/05 19:27:49;;;;;;;12.90;4.30;;;5.50;92.10;;;;;;4993617;28;20105;-39
2022/01/05 19:30:15;;;;;;;19.58;5.70;;;5.50;92.30;;;;;;4993969;28;20105;-40
2022/01/05 19:32:41;;;;;;;26.23;4.88;;;5.60;91.90;;;;;;4993956;28;20065;-42
2022/01/05 19:35:07;;;;;;;19.23;4.45;;;5.70;91.70;;;;;;4994068;28;20076;-38
2022/01/05 19:37:33;;;;;;;28.08;5.80;;;5.70;91.60;;;;;;4994073;28;20026;-38
2022/01/05 19:39:59;;;;;;;21.15;5.25;;;5.60;91.70;;;;;;5061808;28;20038;-37
2022/01/05 19:42:25;;;;;;;22.38;5.95;;;5.70;91.90;;;;;;4994315;28;20026;-38
2022/01/05 19:44:52;;;;;;;29.52;8.43;;;5.70;91.60;;;;;;4994733;28;20409;-38
2022/01/05 19:47:19;;;;;;;17.90;5.10;;;5.70;91.70;;;;;;4994356;28;20025;-37
2022/01/05 19:49:45;;;;;;;21.60;6.25;;;5.70;91.80;;;;;;4994155;28;20026;-39
2022/01/05 19:52:19;;;;;;;22.83;7.38;;;5.80;91.80;;;;;;4994473;28;20523;-49
2022/01/05 19:54:52;;;;;;;29.73;7.63;;;5.70;91.90;;;;;;4993917;28;20459;-49
2022/01/05 19:57:17;;;;;;;18.33;6.22;;;5.80;91.90;;;;;;4994110;28;20030;-50
2022/01/05 19:59:43;;;;;;;14.40;4.63;;;5.60;92.10;;;;;;4993704;28;20482;-47
2022/01/05 20:02:15;;;;;;;17.23;4.43;;;5.70;92.40;;;;;;5057904;28;20044;-48
2022/01/05 20:04:42;;;;;;;19.33;7.03;;;5.70;92.20;;;;;;5096520;28;20027;-52
2022/01/05 20:07:08;;;;;;;16.20;4.63;;;5.70;92.20;;;;;;5095676;28;20027;-49
2022/01/05 20:09:35;;;;;;;26.20;5.95;;;5.60;92.10;;;;;;5096555;28;20122;-49
2022/01/05 20:12:01;;;;;;;28.10;5.65;;;5.70;92.20;;;;;;5096095;28;20020;-48
2022/01/05 20:14:26;;;;;;;20.65;6.20;;;5.70;91.70;;;;;;5096180;28;20093;-48
2022/01/05 20:16:52;;;;;;;27.40;6.03;;;5.70;91.70;;;;;;5095306;28;20024;-48
2022/01/05 20:19:18;;;;;;;27.73;6.88;;;5.80;91.50;;;;;;5096172;28;20028;-50
2022/01/05 20:21:44;;;;;;;16.58;5.68;;;5.70;91.70;;;;;;5095985;28;20053;-49
2022/01/05 20:24:12;;;;;;;27.88;5.55;;;5.70;91.80;;;;;;5095388;28;20023;-47
2022/01/05 20:26:41;;;;;;;16.23;5.00;;;5.60;91.80;;;;;;5095569;28;20472;-50
2022/01/05 20:29:10;;;;;;;20.85;5.32;;;5.60;91.60;;;;;;5095967;28;20106;-51
2022/01/05 20:31:38;;;;;;;34.60;7.15;;;5.70;91.50;;;;;;5096645;28;20024;-48
2022/01/05 20:34:05;;;;;;;21.77;6.00;;;5.80;90.70;;;;;;5095774;28;20031;-48
2022/01/05 20:36:32;;;;;;;25.70;5.13;;;5.80;90.00;;;;;;5096167;28;20089;-50
2022/01/05 20:38:58;;;;;;;30.90;6.05;;;5.80;89.40;;;;;;5095754;28;20078;-51
2022/01/05 20:41:24;;;;;;;15.95;5.00;;;5.80;89.20;;;;;;5095437;28;20196;-48
2022/01/05 20:43:49;;;;;;;24.25;4.93;;;5.80;89.20;;;;;;5094567;28;20016;-49
2022/01/05 20:46:15;;;;;;;11.45;4.07;;;5.80;89.00;;;;;;5095226;28;20077;-51
2022/01/05 20:48:41;;;;;;;13.15;4.20;;;5.70;89.00;;;;;;5095271;28;20026;-49
2022/01/05 20:51:07;;;;;;;13.05;3.85;;;5.60;89.30;;;;;;5095269;28;20020;-50
2022/01/05 20:53:32;;;;;;;25.45;4.10;;;5.60;89.30;;;;;;5094795;28;20025;-50
2022/01/05 20:55:58;;;;;;;15.85;4.10;;;5.60;89.30;;;;;;5096447;28;20012;-51
2022/01/05 20:58:24;;;;;;;22.13;5.03;;;5.50;89.30;;;;;;5095163;28;20482;-51
2022/01/05 21:00:49;;;;;;;26.55;4.00;;;5.50;89.30;;;;;;5094317;28;20107;-49
2022/01/05 21:03:15;;;;;;;17.13;3.60;;;5.50;89.40;;;;;;5076575;28;20020;-48
2022/01/05 21:05:41;;;;;;;17.85;4.45;;;5.50;89.40;;;;;;5095231;28;20024;-48
2022/01/05 21:08:08;;;;;;;18.50;4.10;;;5.50;89.70;;;;;;5095265;28;20028;-49
2022/01/05 21:10:33;;;;;;;22.90;5.25;;;5.50;89.80;;;;;;5093711;28;20024;-47
2022/01/05 21:13:02;;;;;;;15.68;4.20;;;5.50;89.90;;;;;;5094977;28;20016;-49
2022/01/05 21:15:32;;;;;;;20.58;4.97;;;5.40;90.00;;;;;;5077009;28;20415;-47
2022/01/05 21:17:59;;;;;;;22.98;4.95;;;5.40;90.40;;;;;;5094591;28;20028;-48
2022/01/05 21:20:27;;;;;;;16.65;4.30;;;5.40;90.40;;;;;;5095058;28;20028;-50
2022/01/05 21:22:53;;;;;;;19.05;4.55;;;5.30;90.40;;;;;;5094874;28;20054;-52
2022/01/05 21:25:21;;;;;;;20.33;4.40;;;5.30;89.90;;;;;;5093974;28;20028;-48
2022/01/05 21:27:55;;;;;;;19.55;4.55;;;5.30;90.20;;;;;;5094867;28;20032;-48
2022/01/05 21:30:23;;;;;;;16.88;4.97;;;5.20;90.50;;;;;;5094919;28;20016;-48
2022/01/05 21:32:48;;;;;;;18.15;4.25;;;5.20;90.60;;;;;;5094306;28;20035;-50
2022/01/05 21:35:14;;;;;;;21.05;5.55;;;5.10;91.00;;;;;;5094423;28;20376;-50
2022/01/05 21:37:40;;;;;;;32.92;5.53;;;5.20;90.70;;;;;;5094795;28;20036;-51
2022/01/05 21:40:06;;;;;;;24.52;5.30;;;5.20;90.90;;;;;;5094504;28;20377;-48
2022/01/05 21:42:34;;;;;;;33.92;7.28;;;5.10;91.00;;;;;;5093607;28;20020;-51
2022/01/05 21:45:00;;;;;;;18.88;4.10;;;5.10;90.80;;;;;;5095647;28;20027;-51
2022/01/05 21:47:26;;;;;;;17.20;3.50;;;5.00;90.90;;;;;;5096226;28;20446;-48
2022/01/05 21:49:53;;;;;;;20.25;3.78;;;5.00;91.00;;;;;;5094625;28;20027;-48
2022/01/05 21:52:19;;;;;;;18.73;5.13;;;4.90;91.20;;;;;;5094848;28;20028;-48
2022/01/05 21:54:45;;;;;;;21.83;4.32;;;4.80;91.30;;;;;;5095337;28;20028;-50
2022/01/05 21:57:11;;;;;;;18.50;4.70;;;4.80;91.50;;;;;;5094325;28;20028;-49
2022/01/05 21:59:36;;;;;;;16.52;4.40;;;4.80;91.60;;;;;;5059099;28;20460;-48
2022/01/05 22:02:02;;;;;;;17.33;3.70;;;4.70;91.40;;;;;;5094034;28;20059;-47
2022/01/05 22:04:28;;;;;;;26.40;3.45;;;4.60;91.80;;;;;;5095130;28;20376;-49
2022/01/05 22:06:54;;;;;;;15.88;3.35;;;4.50;91.80;;;;;;5094107;28;20027;-49
2022/01/05 22:09:19;;;;;;;26.25;5.07;;;4.50;91.80;;;;;;5076739;28;20028;-47
2022/01/05 22:11:45;;;;;;;17.95;3.60;;;4.40;91.80;;;;;;5075946;28;20024;-51
2022/01/05 22:14:11;;;;;;;23.92;4.72;;;4.40;91.80;;;;;;5094245;28;20032;-51
2022/01/05 22:16:37;;;;;;;20.38;4.85;;;4.40;91.60;;;;;;5093617;28;20028;-51
2022/01/05 22:19:04;;;;;;;14.18;3.10;;;4.40;91.50;;;;;;5093681;28;20024;-48
2022/01/05 22:21:29;;;;;;;21.25;4.65;;;4.30;91.50;;;;;;5094363;28;20031;-47
2022/01/05 22:23:55;;;;;;;13.73;4.57;;;4.30;91.30;;;;;;5095767;28;20053;-50
2022/01/05 22:26:21;;;;;;;18.33;3.25;;;4.30;91.40;;;;;;5097920;28;20409;-48
2022/01/05 22:28:46;;;;;;;16.33;4.95;;;4.30;91.40;;;;;;5097940;28;20416;-48
2022/01/05 22:31:12;;;;;;;19.92;4.22;;;4.30;91.20;;;;;;5098350;28;20020;-49
2022/01/05 22:33:39;;;;;;;14.52;2.72;;;4.30;91.30;;;;;;5097783;28;20085;-48
2022/01/05 22:36:05;;;;;;;20.00;3.92;;;4.30;91.10;;;;;;5097663;28;20044;-47
2022/01/05 22:38:32;;;;;;;16.58;3.05;;;4.30;91.00;;;;;;5097756;28;20020;-49
2022/01/05 22:40:58;;;;;;;17.02;2.75;;;4.40;90.60;;;;;;5097030;28;20020;-49
2022/01/05 22:43:24;;;;;;;18.70;3.72;;;4.40;90.50;;;;;;5097200;28;20109;-48
2022/01/05 22:45:51;;;;;;;10.55;3.00;;;4.50;90.10;;;;;;5098238;28;20024;-47
2022/01/05 22:48:16;;;;;;;13.82;3.88;;;4.50;90.20;;;;;;5097797;28;20016;-48
2022/01/05 22:50:42;;;;;;;26.60;3.42;;;4.40;89.80;;;;;;5097812;28;20025;-49
2022/01/05 22:53:08;;;;;;;19.30;4.57;;;4.50;89.70;;;;;;5097087;28;20028;-49